createdAt,value
2022-08-01T00:00:15.343Z,3.58
2022-08-01T00:02:42.462Z,3.60
2022-08-01T00:05:10.132Z,3.25
2022-08-01T00:07:38.416Z,3.90
2022-08-01T00:10:07.269Z,4.43
2022-08-01T00:12:34.519Z,3.75
2022-08-01T00:15:01.833Z,3.30
2022-08-01T00:17:28.828Z,3.50
2022-08-01T00:19:55.833Z,3.28
2022-08-01T00:22:22.840Z,3.40
2022-08-01T00:24:49.781Z,3.30
2022-08-01T00:27:16.721Z,4.07
2022-08-01T00:30:09.472Z,3.15
2022-08-01T00:32:33.446Z,3.33
2022-08-01T00:35:00.509Z,4.00
2022-08-01T00:37:27.442Z,3.78
2022-08-01T00:39:54.535Z,3.45
2022-08-01T00:42:22.038Z,3.65
2022-08-01T00:44:48.990Z,3.60
2022-08-01T00:47:16.039Z,3.70
2022-08-01T00:49:43.180Z,3.40
2022-08-01T00:52:11.135Z,3.63
2022-08-01T00:54:38.324Z,3.30
2022-08-01T00:57:09.971Z,3.63
2022-08-01T00:59:39.882Z,3.40
2022-08-01T01:02:15.449Z,3.20
2022-08-01T01:04:43.614Z,3.53
2022-08-01T01:07:49.681Z,3.15
2022-08-01T01:10:23.758Z,3.50
2022-08-01T01:13:05.836Z,3.30
2022-08-01T01:16:00.507Z,3.00
2022-08-01T01:18:46.182Z,3.00
2022-08-01T01:21:19.154Z,2.92
2022-08-01T01:24:23.243Z,2.83
2022-08-01T01:26:55.999Z,2.72
2022-08-01T01:29:58.948Z,3.28
2022-08-01T01:32:35.188Z,2.67
2022-08-01T01:35:10.372Z,2.88
2022-08-01T01:37:40.323Z,2.85
2022-08-01T01:40:10.882Z,2.08
2022-08-01T01:42:39.204Z,2.30
2022-08-01T01:45:07.483Z,2.10
2022-08-01T01:47:35.635Z,2.08
2022-08-01T01:50:04.390Z,2.17
2022-08-01T01:52:33.694Z,2.47
2022-08-01T01:55:03.589Z,2.00
2022-08-01T01:57:33.557Z,1.95
2022-08-01T02:00:01.638Z,2.00
2022-08-01T02:02:29.818Z,1.73
2022-08-01T02:04:59.233Z,1.73
2022-08-01T02:07:28.485Z,1.80
2022-08-01T02:09:57.567Z,1.98
2022-08-01T02:12:25.549Z,1.48
2022-08-01T02:14:55.765Z,1.65
2022-08-01T02:17:25.366Z,2.00
2022-08-01T02:19:54.887Z,1.90
2022-08-01T02:22:33.582Z,1.80
2022-08-01T02:25:21.494Z,1.60
2022-08-01T02:28:10.311Z,1.65
2022-08-01T02:30:40.276Z,1.95
2022-08-01T02:33:15.735Z,1.90
2022-08-01T02:36:30.218Z,1.90
2022-08-01T02:38:37.611Z,1.75
2022-08-01T02:41:11.508Z,1.83
2022-08-01T02:43:42.029Z,1.50
2022-08-01T02:46:13.869Z,1.75
2022-08-01T02:48:44.088Z,1.63
2022-08-01T02:51:12.998Z,1.90
2022-08-01T02:53:44.499Z,1.30
2022-08-01T02:56:14.528Z,1.50
2022-08-01T02:58:43.043Z,1.33
2022-08-01T03:01:11.420Z,1.30
2022-08-01T03:03:39.210Z,1.48
2022-08-01T03:06:07.256Z,1.40
2022-08-01T03:08:37.847Z,1.40
2022-08-01T03:11:07.233Z,1.38
2022-08-01T03:13:34.403Z,1.40
2022-08-01T03:16:03.546Z,1.15
2022-08-01T03:18:32.514Z,1.20
2022-08-01T03:21:01.021Z,1.52
2022-08-01T03:23:38.467Z,1.20
2022-08-01T03:26:07.100Z,1.58
2022-08-01T03:28:34.614Z,1.52
2022-08-01T03:31:03.589Z,1.55
2022-08-01T03:33:30.822Z,1.63
2022-08-01T03:36:01.394Z,1.20
2022-08-01T03:38:32.246Z,1.50
2022-08-01T03:41:14.329Z,1.30
2022-08-01T03:43:49.518Z,1.30
2022-08-01T03:46:27.660Z,1.17
2022-08-01T03:48:59.887Z,1.10
2022-08-01T03:51:28.742Z,0.85
2022-08-01T03:53:58.114Z,1.10
2022-08-01T03:56:26.647Z,0.95
2022-08-01T03:58:54.731Z,0.88
2022-08-01T04:01:22.526Z,1.50
2022-08-01T04:03:50.081Z,1.20
2022-08-01T04:06:18.323Z,1.08
2022-08-01T04:08:56.569Z,1.05
2022-08-01T04:11:28.358Z,0.98
2022-08-01T04:13:55.811Z,1.02
2022-08-01T04:16:23.749Z,0.90
2022-08-01T04:18:51.063Z,1.00
2022-08-01T04:21:22.945Z,1.15
2022-08-01T04:23:53.526Z,1.50
2022-08-01T04:26:22.522Z,1.20
2022-08-01T04:28:51.206Z,0.88
2022-08-01T04:31:19.890Z,1.05
2022-08-01T04:33:50.910Z,1.38
2022-08-01T04:36:23.664Z,0.98
2022-08-01T04:38:56.851Z,1.25
2022-08-01T04:41:25.082Z,1.02
2022-08-01T04:43:53.240Z,1.15
2022-08-01T04:46:20.501Z,1.17
2022-08-01T04:48:48.520Z,0.95
2022-08-01T04:51:16.992Z,1.33
2022-08-01T04:53:45.151Z,0.90
2022-08-01T04:56:14.278Z,1.00
2022-08-01T04:58:44.814Z,1.38
2022-08-01T05:01:12.310Z,1.30
2022-08-01T05:03:39.434Z,1.10
2022-08-01T05:06:07.903Z,1.40
2022-08-01T05:08:35.034Z,0.98
2022-08-01T05:11:02.413Z,1.17
2022-08-01T05:13:29.446Z,1.38
2022-08-01T05:15:56.611Z,1.17
2022-08-01T05:18:26.220Z,0.65
2022-08-01T05:20:56.248Z,1.00
2022-08-01T05:23:36.481Z,1.48
2022-08-01T05:26:11.018Z,1.45
2022-08-01T05:28:37.920Z,1.33
2022-08-01T05:31:05.305Z,1.42
2022-08-01T05:33:32.358Z,1.10
2022-08-01T05:35:59.299Z,1.17
2022-08-01T05:38:26.398Z,1.30
2022-08-01T05:40:53.384Z,1.60
2022-08-01T05:43:20.491Z,1.35
2022-08-01T05:45:48.448Z,1.50
2022-08-01T05:48:15.456Z,1.27
2022-08-01T05:50:42.453Z,1.05
2022-08-01T05:53:09.605Z,1.17
2022-08-01T05:55:37.094Z,1.25
2022-08-01T05:58:04.455Z,1.40
2022-08-01T06:00:31.543Z,1.30
2022-08-01T06:02:58.992Z,1.15
2022-08-01T06:05:25.970Z,1.00
2022-08-01T06:07:53.142Z,1.73
2022-08-01T06:10:20.375Z,1.85
2022-08-01T06:12:47.556Z,1.20
2022-08-01T06:15:14.767Z,0.90
2022-08-01T06:17:42.406Z,1.02
2022-08-01T06:20:10.090Z,0.80
2022-08-01T06:22:37.114Z,1.00
2022-08-01T06:25:05.642Z,0.95
2022-08-01T06:27:36.447Z,0.85
2022-08-01T06:30:05.207Z,0.70
2022-08-01T06:32:32.445Z,0.60
2022-08-01T06:34:59.813Z,0.80
2022-08-01T06:37:31.393Z,0.80
2022-08-01T06:40:14.704Z,0.90
2022-08-01T06:42:43.737Z,0.82
2022-08-01T06:45:12.276Z,0.90
2022-08-01T06:47:40.524Z,0.70
2022-08-01T06:50:09.864Z,0.73
2022-08-01T06:52:38.945Z,1.00
2022-08-01T06:55:06.583Z,0.82
2022-08-01T06:57:33.959Z,0.90
2022-08-01T07:00:14.078Z,1.13
2022-08-01T07:02:42.165Z,0.77
2022-08-01T07:05:10.397Z,0.70
2022-08-01T07:07:39.089Z,1.65
2022-08-01T07:10:06.510Z,0.90
2022-08-01T07:12:34.363Z,0.98
2022-08-01T07:15:01.370Z,1.00
2022-08-01T07:17:28.771Z,0.80
2022-08-01T07:19:55.696Z,1.00
2022-08-01T07:22:24.840Z,0.85
2022-08-01T07:24:54.473Z,0.82
2022-08-01T07:27:25.822Z,1.17
2022-08-01T07:29:53.772Z,0.90
2022-08-01T07:32:20.926Z,0.80
2022-08-01T07:34:47.901Z,0.90
2022-08-01T07:37:14.862Z,1.20
2022-08-01T07:39:41.846Z,0.65
2022-08-01T07:42:08.920Z,0.93
2022-08-01T07:44:36.783Z,0.77
2022-08-01T07:47:04.681Z,0.70
2022-08-01T07:49:36.086Z,0.70
2022-08-01T07:52:05.116Z,0.60
2022-08-01T07:54:34.634Z,1.00
2022-08-01T07:57:02.849Z,0.50
2022-08-01T07:59:29.778Z,0.50
2022-08-01T08:01:57.013Z,0.63
2022-08-01T08:04:24.269Z,0.63
2022-08-01T08:06:51.358Z,0.75
2022-08-01T08:09:18.318Z,0.68
2022-08-01T08:11:47.703Z,0.60
2022-08-01T08:14:16.835Z,0.63
2022-08-01T08:16:44.414Z,0.50
2022-08-01T08:19:12.136Z,0.50
2022-08-01T08:21:39.544Z,0.80
2022-08-01T08:24:26.162Z,0.65
2022-08-01T08:26:58.626Z,0.90
2022-08-01T08:29:27.593Z,0.68
2022-08-01T08:31:58.776Z,0.60
2022-08-01T08:34:26.968Z,0.88
2022-08-01T08:36:55.869Z,0.70
2022-08-01T08:39:24.305Z,0.60
2022-08-01T08:41:51.871Z,0.40
2022-08-01T08:44:21.104Z,0.73
2022-08-01T08:46:52.472Z,0.70
2022-08-01T08:49:36.246Z,0.60
2022-08-01T08:52:05.397Z,0.50
2022-08-01T08:54:33.669Z,0.60
2022-08-01T08:57:02.398Z,0.60
2022-08-01T08:59:29.914Z,0.45
2022-08-01T09:01:58.478Z,0.50
2022-08-01T09:04:27.125Z,0.50
2022-08-01T09:06:55.111Z,0.52
2022-08-01T09:09:23.402Z,0.55
2022-08-01T09:11:57.039Z,0.57
2022-08-01T09:14:28.404Z,0.60
2022-08-01T09:17:08.770Z,0.70
2022-08-01T09:19:52.356Z,0.40
2022-08-01T09:22:25.752Z,0.70
2022-08-01T09:25:11.069Z,0.60
2022-08-01T09:27:44.499Z,0.57
2022-08-01T09:30:23.479Z,0.40
2022-08-01T09:32:58.908Z,0.63
2022-08-01T09:35:36.520Z,0.40
2022-08-01T09:38:15.763Z,0.70
2022-08-01T09:40:58.449Z,0.77
2022-08-01T09:43:31.574Z,0.80
2022-08-01T10:16:53.508Z,0.80
2022-08-01T10:19:25.092Z,0.65
2022-08-01T10:21:59.423Z,0.60
2022-08-01T10:24:30.464Z,0.65
2022-08-01T10:27:12.223Z,0.70
2022-08-01T10:30:05.372Z,0.68
2022-08-01T10:32:39.464Z,0.70
2022-08-01T10:35:14.877Z,1.35
2022-08-01T10:37:51.518Z,0.50
2022-08-01T10:40:36.958Z,0.57
2022-08-01T10:43:04.915Z,0.55
2022-08-01T10:45:32.564Z,0.80
2022-08-01T10:48:10.899Z,0.60
2022-08-01T10:50:48.280Z,0.90
2022-08-01T10:53:31.472Z,0.80
2022-08-01T10:56:12.780Z,0.65
2022-08-01T10:58:44.353Z,0.70
2022-08-01T11:01:31.428Z,0.73
2022-08-01T11:04:08.411Z,0.70
2022-08-01T11:06:40.799Z,0.68
2022-08-01T11:09:36.190Z,0.80
2022-08-01T11:12:24.618Z,0.68
2022-08-01T11:15:03.132Z,0.60
2022-08-01T11:17:49.016Z,0.52
2022-08-01T11:20:17.501Z,0.47
2022-08-01T11:23:03.612Z,0.60
2022-08-01T11:25:58.219Z,0.75
2022-08-01T11:28:34.870Z,0.60
2022-08-01T11:31:11.634Z,1.05
2022-08-01T11:33:45.751Z,0.80
2022-08-01T11:36:14.497Z,0.60
2022-08-01T11:39:01.455Z,0.50
2022-08-01T11:41:38.399Z,0.73
2022-08-01T11:44:12.991Z,0.47
2022-08-01T11:47:03.409Z,0.80
2022-08-01T11:52:19.173Z,0.80
2022-08-01T11:54:51.570Z,0.77
2022-08-01T11:57:34.104Z,0.60
2022-08-01T12:00:20.507Z,0.60
2022-08-01T12:02:59.163Z,0.60
2022-08-01T12:05:27.588Z,0.60
2022-08-01T12:07:56.290Z,0.70
2022-08-01T12:10:26.457Z,0.85
2022-08-01T12:13:01.896Z,0.63
2022-08-01T12:15:34.433Z,0.70
2022-08-01T12:18:05.645Z,0.60
2022-08-01T12:20:38.133Z,0.73
2022-08-01T12:23:13.086Z,0.55
2022-08-01T12:25:41.290Z,0.68
2022-08-01T12:28:10.159Z,0.70
2022-08-01T12:30:38.418Z,0.90
2022-08-01T12:33:07.087Z,0.77
2022-08-01T12:35:35.211Z,0.70
2022-08-01T12:38:18.537Z,0.85
2022-08-01T12:40:52.886Z,0.73
2022-08-01T12:43:28.485Z,0.90
2022-08-01T12:45:59.501Z,0.93
2022-08-01T12:48:27.365Z,0.70
2022-08-01T12:50:55.323Z,0.70
2022-08-01T12:53:23.903Z,0.95
2022-08-01T12:55:58.635Z,0.80
2022-08-01T13:01:13.308Z,0.63
2022-08-01T13:03:41.195Z,1.05
2022-08-01T13:06:16.662Z,0.75
2022-08-01T13:08:46.208Z,0.77
2022-08-01T13:11:16.843Z,1.05
2022-08-01T13:13:45.230Z,0.73
2022-08-01T13:16:23.488Z,1.00
2022-08-01T13:18:59.941Z,0.93
2022-08-01T13:21:29.554Z,0.85
2022-08-01T13:24:16.845Z,1.10
2022-08-01T13:26:54.416Z,0.90
2022-08-01T13:29:34.094Z,0.82
2022-08-01T13:32:13.737Z,1.02
2022-08-01T13:35:08.965Z,1.30
2022-08-01T13:37:38.941Z,1.25
2022-08-01T13:40:08.501Z,1.13
2022-08-01T13:42:35.962Z,1.13
2022-08-01T13:45:14.701Z,1.50
2022-08-01T13:48:12.137Z,1.30
2022-08-01T13:50:33.356Z,1.20
2022-08-01T13:53:00.336Z,1.10
2022-08-01T13:55:32.343Z,1.15
2022-08-01T13:58:01.679Z,1.30
2022-08-01T14:00:28.633Z,1.15
2022-08-01T14:02:55.596Z,1.30
2022-08-01T14:05:22.911Z,1.40
2022-08-01T14:07:50.070Z,1.30
2022-08-01T14:10:24.578Z,1.58
2022-08-01T14:12:51.626Z,1.23
2022-08-01T14:15:39.255Z,1.50
2022-08-01T14:18:06.800Z,1.63
2022-08-01T14:20:35.894Z,1.40
2022-08-01T14:23:02.950Z,1.42
2022-08-01T14:26:05.363Z,1.20
2022-08-01T14:28:17.067Z,1.45
2022-08-01T14:30:44.561Z,1.40
2022-08-01T14:33:13.031Z,2.45
2022-08-01T14:36:01.272Z,1.63
2022-08-01T14:38:31.591Z,1.38
2022-08-01T14:41:00.873Z,2.10
2022-08-01T14:43:32.796Z,2.08
2022-08-01T14:46:02.270Z,1.80
2022-08-01T14:48:29.810Z,2.00
2022-08-01T14:50:58.203Z,1.77
2022-08-01T14:53:25.253Z,2.03
2022-08-01T14:55:52.193Z,1.80
2022-08-01T14:58:19.206Z,2.00
2022-08-01T15:00:46.531Z,2.20
2022-08-01T15:03:13.748Z,1.73
2022-08-01T15:05:40.792Z,2.70
2022-08-01T15:08:07.876Z,2.00
2022-08-01T15:10:34.960Z,1.98
2022-08-01T15:13:02.771Z,2.13
2022-08-01T15:15:30.285Z,1.85
2022-08-01T15:17:57.719Z,2.03
2022-08-01T15:20:26.355Z,2.08
2022-08-01T15:22:53.889Z,1.83
2022-08-01T15:25:21.477Z,2.10
2022-08-01T15:27:48.648Z,1.98
2022-08-01T15:30:15.644Z,1.83
2022-08-01T15:32:42.769Z,2.17
2022-08-01T15:35:11.284Z,2.22
2022-08-01T15:37:42.861Z,2.33
2022-08-01T15:40:12.564Z,2.28
2022-08-01T15:42:39.938Z,2.80
2022-08-01T15:45:10.564Z,2.38
2022-08-01T15:47:40.526Z,2.67
2022-08-01T15:50:08.107Z,1.73
2022-08-01T15:52:35.156Z,2.35
2022-08-01T15:55:02.475Z,2.38
2022-08-01T15:57:29.762Z,2.40
2022-08-01T15:59:56.798Z,2.00
2022-08-01T16:02:23.964Z,2.17
2022-08-01T16:04:51.259Z,2.22
2022-08-01T16:07:18.179Z,2.30
2022-08-01T16:09:45.146Z,2.42
2022-08-01T16:12:12.098Z,1.92
2022-08-01T16:14:39.080Z,2.40
2022-08-01T16:17:06.035Z,2.42
2022-08-01T16:19:33.038Z,1.63
2022-08-01T16:22:00.089Z,1.83
2022-08-01T16:24:29.547Z,3.00
2022-08-01T16:26:56.638Z,2.30
2022-08-01T16:29:25.729Z,2.03
2022-08-01T16:32:13.147Z,2.20
2022-08-01T16:37:13.842Z,1.90
2022-08-01T16:39:41.121Z,1.67
2022-08-01T16:42:08.615Z,1.73
2022-08-01T16:44:35.710Z,1.73
2022-08-01T16:47:05.007Z,1.75
2022-08-01T16:49:32.467Z,1.90
2022-08-01T16:51:59.837Z,1.55
2022-08-01T16:54:27.904Z,1.58
2022-08-01T16:56:57.888Z,1.55
2022-08-01T16:59:25.136Z,1.55
2022-08-01T17:01:59.078Z,1.85
2022-08-01T17:04:29.148Z,1.40
2022-08-01T17:06:56.464Z,2.03
2022-08-01T17:09:23.477Z,2.00
2022-08-01T17:11:50.590Z,1.75
2022-08-01T17:14:18.318Z,2.08
2022-08-01T17:16:45.502Z,2.10
2022-08-01T17:19:12.814Z,1.92
2022-08-01T17:21:42.246Z,1.90
2022-08-01T17:24:11.535Z,2.10
2022-08-01T17:26:42.676Z,1.90
2022-08-01T17:29:09.628Z,1.80
2022-08-01T17:31:36.564Z,1.92
2022-08-01T17:34:03.521Z,1.88
2022-08-01T17:36:30.463Z,1.90
2022-08-01T17:38:59.319Z,1.65
2022-08-01T17:41:26.749Z,2.22
2022-08-01T17:43:53.910Z,1.80
2022-08-01T17:46:20.881Z,2.20
2022-08-01T17:48:47.891Z,2.47
2022-08-01T17:51:19.312Z,1.75
2022-08-01T17:53:53.170Z,1.88
2022-08-01T17:56:24.958Z,1.92
2022-08-01T17:58:52.460Z,1.92
2022-08-01T18:01:20.413Z,2.47
2022-08-01T18:03:48.227Z,2.03
2022-08-01T18:06:23.214Z,2.40
2022-08-01T18:08:53.078Z,2.33
2022-08-01T18:11:23.249Z,2.13
2022-08-01T18:13:52.130Z,1.75
2022-08-01T18:16:19.167Z,2.10
2022-08-01T18:18:46.225Z,2.03
2022-08-01T18:21:13.251Z,2.08
2022-08-01T18:23:40.244Z,2.25
2022-08-01T18:26:11.207Z,2.50
2022-08-01T18:28:46.749Z,1.98
2022-08-01T18:31:16.711Z,2.22
2022-08-01T18:33:44.378Z,2.05
2022-08-01T18:36:24.613Z,2.00
2022-08-01T18:41:26.100Z,2.13
2022-08-01T18:44:05.596Z,2.20
2022-08-01T18:46:39.073Z,2.50
2022-08-01T18:49:08.972Z,1.95
2022-08-01T18:51:41.601Z,2.22
2022-08-01T18:54:10.630Z,2.20
2022-08-01T18:56:37.663Z,2.45
2022-08-01T18:59:04.627Z,1.98
2022-08-01T19:01:31.790Z,2.00
2022-08-01T19:03:58.763Z,2.38
2022-08-01T19:06:27.209Z,2.10
2022-08-01T19:08:58.384Z,2.28
2022-08-01T19:11:28.864Z,2.13
2022-08-01T19:13:56.283Z,2.10
2022-08-01T19:16:23.537Z,1.83
2022-08-01T19:18:50.614Z,2.03
2022-08-01T19:21:17.798Z,1.92
2022-08-01T19:24:03.088Z,2.08
2022-08-01T19:26:33.823Z,2.35
2022-08-01T19:29:19.639Z,2.30
2022-08-01T19:31:49.133Z,2.25
2022-08-01T19:34:19.037Z,2.10
2022-08-01T19:36:47.810Z,2.20
2022-08-01T19:39:20.073Z,1.90
2022-08-01T19:41:48.948Z,2.05
2022-08-01T19:44:18.974Z,1.92
2022-08-01T19:46:46.257Z,2.30
2022-08-01T19:49:17.712Z,2.38
2022-08-01T19:51:50.827Z,2.13
2022-08-01T19:54:20.129Z,2.20
2022-08-01T19:56:49.303Z,2.10
2022-08-01T19:59:23.481Z,2.17
2022-08-01T20:01:52.712Z,2.58
2022-08-01T20:04:19.828Z,2.35
2022-08-01T20:06:47.830Z,2.10
2022-08-01T20:09:15.710Z,2.70
2022-08-01T20:11:48.029Z,2.17
2022-08-01T20:14:21.977Z,2.30
2022-08-01T20:16:50.857Z,2.20
2022-08-01T20:19:19.542Z,2.42
2022-08-01T20:22:03.450Z,2.40
2022-08-01T20:24:39.756Z,2.15
2022-08-01T20:27:09.770Z,2.33
2022-08-01T20:29:37.395Z,2.67
2022-08-01T20:32:04.619Z,2.88
2022-08-01T20:34:37.877Z,2.70
2022-08-01T20:37:12.443Z,2.25
2022-08-01T20:39:43.843Z,2.50
2022-08-01T20:42:11.702Z,2.63
2022-08-01T20:44:39.129Z,2.00
2022-08-01T20:47:06.506Z,2.40
2022-08-01T20:49:36.950Z,2.40
2022-08-01T20:52:12.214Z,2.60
2022-08-01T20:54:41.396Z,2.30
2022-08-01T20:57:26.364Z,2.80
2022-08-01T21:00:03.231Z,2.70
2022-08-01T21:02:36.092Z,2.60
2022-08-01T21:05:13.728Z,2.45
2022-08-01T21:07:51.238Z,2.67
2022-08-01T21:10:21.802Z,2.35
2022-08-01T21:13:19.081Z,3.58
2022-08-01T21:16:24.113Z,2.80
2022-08-01T21:19:18.539Z,2.60
2022-08-01T21:21:56.772Z,2.53
2022-08-01T21:24:32.223Z,3.25
2022-08-01T21:26:59.810Z,2.63
2022-08-01T21:29:27.173Z,2.75
2022-08-01T21:32:11.629Z,3.03
2022-08-01T21:34:39.893Z,2.70
2022-08-01T21:37:10.341Z,2.53
2022-08-01T21:39:38.231Z,2.90
2022-08-01T21:42:09.279Z,2.63
2022-08-01T21:44:46.124Z,2.55
2022-08-01T21:49:41.712Z,2.55
2022-08-01T21:52:16.383Z,2.63
2022-08-01T21:54:54.441Z,2.40
2022-08-01T21:57:38.655Z,2.83
2022-08-01T22:00:10.674Z,2.47
2022-08-01T22:02:57.090Z,3.17
2022-08-01T22:05:49.550Z,2.38
2022-08-01T22:08:17.215Z,2.55
2022-08-01T22:10:44.268Z,3.00
2022-08-01T22:13:12.368Z,2.90
2022-08-01T22:15:44.669Z,2.95
2022-08-01T22:18:12.420Z,3.13
2022-08-01T22:20:40.295Z,2.85
2022-08-01T22:23:07.433Z,3.17
2022-08-01T22:25:34.467Z,3.33
2022-08-01T22:28:09.601Z,3.22
2022-08-01T22:30:42.110Z,3.30
2022-08-01T22:33:16.384Z,2.65
2022-08-01T22:35:49.016Z,2.92
2022-08-01T22:38:20.764Z,3.08
2022-08-01T22:40:53.547Z,3.33
2022-08-01T22:43:35.527Z,3.35
2022-08-01T22:46:28.389Z,2.85
2022-08-01T22:49:15.963Z,2.70
2022-08-01T22:51:55.625Z,2.65
2022-08-01T22:54:38.902Z,2.90
2022-08-01T22:57:24.425Z,3.13
2022-08-01T23:00:06.599Z,2.20
2022-08-01T23:02:38.511Z,2.85
2022-08-01T23:05:08.468Z,2.47
2022-08-01T23:07:46.194Z,2.70
2022-08-01T23:10:13.600Z,2.65
2022-08-01T23:12:41.545Z,2.50
2022-08-01T23:15:09.374Z,2.25
2022-08-01T23:17:37.529Z,2.50
2022-08-01T23:20:07.488Z,2.50
2022-08-01T23:22:36.620Z,2.78
2022-08-01T23:25:07.907Z,2.25
2022-08-01T23:28:04.225Z,2.70
2022-08-01T23:30:30.004Z,2.40
2022-08-01T23:32:57.942Z,2.30
2022-08-01T23:35:25.831Z,2.10
2022-08-01T23:37:53.435Z,2.30
2022-08-01T23:40:24.946Z,2.00
2022-08-01T23:42:55.953Z,2.40
2022-08-01T23:45:23.635Z,2.28
2022-08-01T23:47:51.546Z,1.90
2022-08-01T23:50:18.927Z,2.60
2022-08-01T23:52:51.503Z,2.60
2022-08-01T23:55:36.784Z,2.55
2022-08-01T23:58:06.998Z,2.88
